Time;durP1;ratioP1;P1;durP2;ratioP2;P2;SDS_P1;SDS_P2;PMS_P1;PMS_P2;Temp;Humidity;BMP_temperature;BMP_pressure;BME280_temperature;BME280_humidity;BME280_pressure;Samples;Min_cycle;Max_cycle;Signal;HPM_P1;HPM_P2
2021/03/29 07:07:30;;;;;;;2.50;1.35;;;;;;;;;;10538161;28;728198;-86
2021/03/29 07:12:40;;;;;;;5.55;2.38;;;;;;;;;;10496507;28;20035;-88
2021/03/29 07:35:20;;;;;;;5.15;2.33;;;;;;;;;;10517673;28;20130;-86
2021/03/29 07:40:46;;;;;;;7.90;2.67;;;;;;;;;;10491726;28;20474;-87
2021/03/29 07:57:51;;;;;;;6.45;2.60;;;;;;;;;;10339563;28;20046;-87
2021/03/29 08:26:15;;;;;;;5.88;2.67;;;;;;;;;;10141050;29;20055;-85
2021/03/29 08:37:39;;;;;;;4.13;1.98;;;;;;;;;;10119802;29;20028;-86
2021/03/29 08:42:51;;;;;;;5.88;2.70;;;;;;;;;;10206897;29;20016;-86
2021/03/29 08:48:05;;;;;;;6.60;2.53;;;;;;;;;;10316849;28;20042;-86
2021/03/29 08:53:33;;;;;;;5.35;2.50;;;;;;;;;;10339424;28;20034;-86
2021/03/29 08:58:36;;;;;;;5.30;2.28;;;;;;;;;;10383323;22;20065;-83
2021/03/29 09:03:37;;;;;;;5.50;2.42;;;;;;;;;;10501068;28;20041;-82
2021/03/29 09:08:38;;;;;;;5.50;2.65;;;;;;;;;;10519225;28;20028;-84
2021/03/29 09:13:39;;;;;;;6.53;3.00;;;;;;;;;;10548482;28;20032;-84
2021/03/29 09:18:42;;;;;;;6.47;3.25;;;;;;;;;;10570974;28;20024;-85
2021/03/29 09:23:43;;;;;;;5.75;2.75;;;;;;;;;;10551805;28;20024;-84
2021/03/29 09:28:48;;;;;;;6.20;3.00;;;;;;;;;;10551482;28;20028;-83
2021/03/29 09:34:10;;;;;;;6.50;2.20;;;;;;;;;;10566870;28;20394;-82
2021/03/29 09:39:14;;;;;;;4.63;2.40;;;;;;;;;;10551173;28;20095;-84
2021/03/29 09:44:15;;;;;;;6.50;2.92;;;;;;;;;;10554350;28;20024;-84
2021/03/29 09:49:17;;;;;;;5.60;2.50;;;;;;;;;;10549479;28;20028;-84
2021/03/29 09:54:35;;;;;;;5.47;2.50;;;;;;;;;;10549653;28;20024;-84
2021/03/29 09:59:36;;;;;;;5.07;2.50;;;;;;;;;;10546381;28;20028;-83
2021/03/29 10:04:37;;;;;;;5.43;1.88;;;;;;;;;;10548482;28;20062;-86
2021/03/29 10:09:39;;;;;;;4.72;2.10;;;;;;;;;;10553225;28;20105;-85
2021/03/29 10:14:40;;;;;;;4.25;1.90;;;;;;;;;;10557266;28;20058;-85
2021/03/29 10:19:41;;;;;;;5.57;2.33;;;;;;;;;;10552265;28;20028;-84
2021/03/29 10:24:58;;;;;;;4.00;2.20;;;;;;;;;;10566411;28;20024;-87
2021/03/29 10:29:58;;;;;;;9.80;3.00;;;;;;;;;;10546846;28;20031;-85
2021/03/29 10:34:59;;;;;;;6.53;2.20;;;;;;;;;;10546587;28;20024;-86
2021/03/29 10:40:02;;;;;;;5.13;2.03;;;;;;;;;;10547003;28;20032;-86
2021/03/29 10:45:39;;;;;;;;;;;;;;;;;;;;;
2021/03/29 10:50:32;;;;;;;4.55;1.95;;;;;;;;;;10580756;28;20028;-85
2021/03/29 10:55:33;;;;;;;6.18;2.20;;;;;;;;;;10571244;28;20005;-86
2021/03/29 11:00:34;;;;;;;4.72;2.10;;;;;;;;;;10561383;28;20122;-83
2021/03/29 11:05:36;;;;;;;5.05;2.45;;;;;;;;;;10551736;28;20011;-85
2021/03/29 11:10:37;;;;;;;3.80;1.98;;;;;;;;;;10554006;28;20026;-84
2021/03/29 11:15:40;;;;;;;6.00;2.38;;;;;;;;;;10553135;28;20032;-85
2021/03/29 11:21:23;;;;;;;3.67;1.98;;;;;;;;;;10555106;28;20095;-86
2021/03/29 11:26:24;;;;;;;3.88;1.98;;;;;;;;;;10572478;28;20111;-83
2021/03/29 11:31:26;;;;;;;6.22;2.38;;;;;;;;;;10536920;28;20117;-85
2021/03/29 11:36:38;;;;;;;5.72;2.60;;;;;;;;;;10552064;28;20039;-86
2021/03/29 11:41:43;;;;;;;5.55;2.25;;;;;;;;;;10570366;28;20024;-83
2021/03/29 11:46:44;;;;;;;7.85;2.30;;;;;;;;;;10551253;28;20028;-85
2021/03/29 11:51:45;;;;;;;4.15;2.10;;;;;;;;;;10549535;28;20024;-84
2021/03/29 11:56:46;;;;;;;4.38;2.10;;;;;;;;;;10549873;28;20096;-83
2021/03/29 12:01:51;;;;;;;5.88;2.40;;;;;;;;;;10548270;28;20062;-85
2021/03/29 12:07:00;;;;;;;5.65;2.10;;;;;;;;;;10549469;28;20024;-84
2021/03/29 12:17:10;;;;;;;5.72;2.03;;;;;;;;;;10567535;28;20039;-83
2021/03/29 12:22:14;;;;;;;4.85;2.20;;;;;;;;;;10552125;28;20024;-84
2021/03/29 12:27:15;;;;;;;4.15;2.03;;;;;;;;;;10567052;28;20073;-83
2021/03/29 12:32:20;;;;;;;4.57;1.95;;;;;;;;;;10549552;28;20181;-86
2021/03/29 12:37:23;;;;;;;7.03;2.55;;;;;;;;;;10558648;28;20058;-85
2021/03/29 12:42:26;;;;;;;5.65;2.20;;;;;;;;;;10570074;28;20031;-84
2021/03/29 12:47:29;;;;;;;4.10;1.90;;;;;;;;;;10565011;28;20145;-86
2021/03/29 12:52:30;;;;;;;4.53;2.58;;;;;;;;;;10566776;28;20031;-85
2021/03/29 12:57:31;;;;;;;7.50;2.20;;;;;;;;;;10566107;28;20038;-84
2021/03/29 13:02:32;;;;;;;5.88;2.50;;;;;;;;;;10569573;28;20087;-84
2021/03/29 13:07:39;;;;;;;4.82;2.38;;;;;;;;;;10571470;28;20027;-85
2021/03/29 13:12:41;;;;;;;7.75;2.30;;;;;;;;;;10563362;28;20032;-83
2021/03/29 13:17:48;;;;;;;3.33;2.28;;;;;;;;;;10561380;28;20058;-85
2021/03/29 13:22:53;;;;;;;6.22;3.78;;;;;;;;;;10559673;28;20356;-85
2021/03/29 13:28:14;;;;;;;9.77;3.75;;;;;;;;;;10564204;28;20024;-85
2021/03/29 13:33:15;;;;;;;4.68;2.47;;;;;;;;;;10559904;28;20038;-86
2021/03/29 13:38:16;;;;;;;5.72;2.80;;;;;;;;;;10556730;28;20028;-84
2021/03/29 13:43:17;;;;;;;7.03;2.53;;;;;;;;;;10558578;28;20028;-86
2021/03/29 13:48:18;;;;;;;5.45;2.47;;;;;;;;;;10560530;28;20030;-86
2021/03/29 13:53:23;;;;;;;6.28;2.10;;;;;;;;;;10560921;28;20028;-86
2021/03/29 13:58:24;;;;;;;4.53;2.47;;;;;;;;;;10562171;28;20021;-87
2021/03/29 14:03:25;;;;;;;4.55;2.20;;;;;;;;;;10568223;28;20016;-86
2021/03/29 14:08:26;;;;;;;5.43;2.13;;;;;;;;;;10556359;28;20032;-84
2021/03/29 14:13:27;;;;;;;6.78;2.22;;;;;;;;;;10550543;28;20039;-84
2021/03/29 14:18:31;;;;;;;4.38;2.40;;;;;;;;;;10554631;28;20024;-83
2021/03/29 14:23:32;;;;;;;5.55;2.17;;;;;;;;;;10558741;28;20028;-84
2021/03/29 14:28:33;;;;;;;4.80;2.03;;;;;;;;;;10558055;28;20128;-84
2021/03/29 14:33:38;;;;;;;5.82;1.90;;;;;;;;;;10556611;28;20024;-85
2021/03/29 14:49:33;;;;;;;4.80;2.83;;;;;;;;;;10573386;28;20047;-84
2021/03/29 14:54:39;;;;;;;5.47;1.95;;;;;;;;;;10553593;28;20058;-85
2021/03/29 15:00:13;;;;;;;4.60;2.42;;;;;;;;;;10550861;22;20025;-86
2021/03/29 15:28:34;;;;;;;5.95;2.50;;;;;;;;;;10479039;28;20021;-87
2021/03/29 15:50:31;;;;;;;4.20;2.15;;;;;;;;;;10448095;28;20071;-86
2021/03/29 16:07:07;;;;;;;5.35;2.28;;;;;;;;;;10469072;28;20033;-86
2021/03/29 16:12:34;;;;;;;4.72;2.17;;;;;;;;;;10435301;28;20402;-86
2021/03/29 16:23:51;;;;;;;4.83;1.80;;;;;;;;;;10485692;28;20028;-86
2021/03/29 16:29:17;;;;;;;6.78;2.30;;;;;;;;;;10448308;28;20260;-85
